Time;durP1;ratioP1;P1;durP2;ratioP2;P2;SDS_P1;SDS_P2;PMS_P1;PMS_P2;Temp;Humidity;BMP_temperature;BMP_pressure;BME280_temperature;BME280_humidity;BME280_pressure;Samples;Min_cycle;Max_cycle;Signal;HPM_P1;HPM_P2
2023/06/16 00:01:35;;;;;;;8.60;4.80;;;;;;;-146.58;100.00;69501.63;5036879;28;20017;-66
2023/06/16 00:04:03;;;;;;;9.32;4.55;;;;;;;-146.58;100.00;69501.63;5035125;28;20160;-65
2023/06/16 00:06:29;;;;;;;5.00;3.77;;;;;;;-146.58;100.00;69501.63;5037115;28;20090;-65
2023/06/16 00:08:56;;;;;;;5.47;4.38;;;;;;;-146.58;100.00;69501.63;5034438;28;20139;-65
2023/06/16 00:11:22;;;;;;;4.97;3.15;;;;;;;-146.58;100.00;69501.63;5036936;28;20714;-65
2023/06/16 00:13:49;;;;;;;8.23;5.25;;;;;;;-146.58;100.00;69501.63;5034900;28;20041;-65
2023/06/16 00:16:22;;;;;;;5.30;4.35;;;;;;;-146.58;100.00;69501.63;5036440;28;20068;-65
2023/06/16 00:18:57;;;;;;;8.23;4.00;;;;;;;-146.58;100.00;69501.63;5035193;28;20052;-65
2023/06/16 00:21:28;;;;;;;8.68;4.15;;;;;;;-146.58;100.00;69501.63;5037238;28;20373;-65
2023/06/16 00:23:54;;;;;;;8.30;4.85;;;;;;;-146.58;100.00;69501.63;5035007;28;20041;-64
2023/06/16 00:26:20;;;;;;;11.73;5.95;;;;;;;-146.58;100.00;69501.63;5036812;28;20432;-65
2023/06/16 00:28:45;;;;;;;9.20;3.97;;;;;;;-146.58;100.00;69501.63;5034418;28;20046;-64
2023/06/16 00:31:11;;;;;;;6.60;5.03;;;;;;;-146.58;100.00;69501.63;5032438;28;20021;-64
2023/06/16 00:33:36;;;;;;;7.10;4.45;;;;;;;-146.58;100.00;69501.63;5032002;28;20382;-64
2023/06/16 00:36:01;;;;;;;8.32;4.05;;;;;;;-146.58;100.00;69501.63;5033344;28;20352;-65
2023/06/16 00:38:27;;;;;;;6.28;5.18;;;;;;;-146.58;100.00;69501.63;5031706;28;20034;-64
2023/06/16 00:40:53;;;;;;;5.28;4.35;;;;;;;-146.58;100.00;69501.63;5033345;28;20029;-64
2023/06/16 00:43:18;;;;;;;12.20;4.93;;;;;;;-146.58;100.00;69501.63;5032195;28;20587;-65
2023/06/16 00:45:44;;;;;;;11.90;5.68;;;;;;;-146.58;100.00;69501.63;5032982;28;20029;-65
2023/06/16 00:48:10;;;;;;;6.82;4.63;;;;;;;-146.58;100.00;69501.63;5031979;28;20036;-65
2023/06/16 00:50:35;;;;;;;12.00;6.68;;;;;;;-146.58;100.00;69501.63;5033433;28;20056;-65
2023/06/16 00:53:01;;;;;;;6.70;4.97;;;;;;;-146.58;100.00;69501.63;5031696;28;20083;-64
2023/06/16 00:55:29;;;;;;;7.32;4.85;;;;;;;-146.58;100.00;69501.63;5032934;28;20040;-64
2023/06/16 00:57:54;;;;;;;9.55;5.97;;;;;;;-146.58;100.00;69501.63;5032909;28;20057;-65
2023/06/16 01:00:20;;;;;;;7.90;5.05;;;;;;;-146.58;100.00;69501.63;5031676;28;20448;-65
2023/06/16 01:02:46;;;;;;;6.78;5.07;;;;;;;-146.58;100.00;69501.63;5032414;28;20053;-65
2023/06/16 01:05:17;;;;;;;10.35;5.43;;;;;;;-146.58;100.00;69501.63;5031531;28;20473;-64
2023/06/16 01:08:14;;;;;;;7.90;5.57;;;;;;;-146.58;100.00;69501.63;5033044;28;20044;-65
2023/06/16 01:11:01;;;;;;;7.17;5.37;;;;;;;-146.58;100.00;69501.63;5011512;28;20065;-64
2023/06/16 01:13:50;;;;;;;12.50;5.93;;;;;;;-146.58;100.00;69501.63;5007962;28;20446;-64
2023/06/16 01:16:21;;;;;;;8.30;7.38;;;;;;;-146.58;100.00;69501.63;4993029;28;20030;-64
2023/06/16 01:18:48;;;;;;;8.82;7.18;;;;;;;-146.58;100.00;69501.63;4991835;28;20046;-65
2023/06/16 01:21:39;;;;;;;7.75;6.60;;;;;;;-146.58;100.00;69501.63;5007639;28;20117;-64
2023/06/16 01:24:05;;;;;;;9.52;6.45;;;;;;;-146.58;100.00;69501.63;5010862;28;20038;-65
2023/06/16 01:26:34;;;;;;;5.53;4.50;;;;;;;-146.58;100.00;69501.63;5012848;28;20044;-65
2023/06/16 01:29:02;;;;;;;6.25;5.68;;;;;;;-146.58;100.00;69501.63;5011180;28;20062;-65
2023/06/16 01:31:31;;;;;;;7.53;6.28;;;;;;;-146.58;100.00;69501.63;5012539;28;20025;-65
2023/06/16 01:33:58;;;;;;;8.88;6.30;;;;;;;-146.58;100.00;69501.63;5011111;28;20038;-64
2023/06/16 01:36:24;;;;;;;6.13;5.00;;;;;;;-146.58;100.00;69501.63;5012388;28;20021;-64
2023/06/16 01:38:50;;;;;;;10.65;6.38;;;;;;;-146.58;100.00;69501.63;5010563;28;20042;-65
2023/06/16 01:41:18;;;;;;;7.78;6.15;;;;;;;-146.58;100.00;69501.63;5012437;28;20477;-65
2023/06/16 01:43:44;;;;;;;10.13;7.05;;;;;;;-146.58;100.00;69501.63;5011036;28;20050;-65
2023/06/16 01:46:10;;;;;;;10.10;7.40;;;;;;;-146.58;100.00;69501.63;5012204;28;20025;-64
2023/06/16 01:48:36;;;;;;;11.38;6.30;;;;;;;-146.58;100.00;69501.63;5011067;28;20087;-64
2023/06/16 01:51:02;;;;;;;12.23;7.05;;;;;;;-146.58;100.00;69501.63;5011979;28;20033;-63
2023/06/16 01:53:27;;;;;;;9.88;7.47;;;;;;;-146.58;100.00;69501.63;5010706;28;20038;-64
2023/06/16 01:55:52;;;;;;;9.70;6.65;;;;;;;-146.58;100.00;69501.63;5011886;28;20037;-64
2023/06/16 01:58:22;;;;;;;9.82;7.35;;;;;;;-146.58;100.00;69501.63;5010868;28;20022;-64
2023/06/16 02:00:57;;;;;;;12.15;7.50;;;;;;;-146.58;100.00;69501.63;5011833;28;20033;-64
2023/06/16 02:03:35;;;;;;;8.40;6.88;;;;;;;-146.58;100.00;69501.63;5010505;28;20046;-64
2023/06/16 02:06:05;;;;;;;11.10;7.30;;;;;;;-146.58;100.00;69501.63;5011840;28;20152;-64
2023/06/16 02:08:33;;;;;;;10.35;7.38;;;;;;;-146.58;100.00;69501.63;5010471;28;20037;-64
2023/06/16 02:10:59;;;;;;;14.25;7.53;;;;;;;-146.58;100.00;69501.63;5011760;28;20063;-64
2023/06/16 02:13:24;;;;;;;10.55;6.35;;;;;;;-146.58;100.00;69501.63;5010706;28;20121;-64
2023/06/16 02:15:50;;;;;;;14.93;7.80;;;;;;;-146.58;100.00;69501.63;5010987;28;20446;-64
2023/06/16 02:18:24;;;;;;;11.50;7.07;;;;;;;-146.58;100.00;69501.63;5010779;28;20030;-64
2023/06/16 02:20:49;;;;;;;10.75;6.88;;;;;;;-146.58;100.00;69501.63;5011942;28;20046;-64
2023/06/16 02:23:15;;;;;;;15.05;7.35;;;;;;;-146.58;100.00;69501.63;5009972;28;20436;-64
2023/06/16 02:25:40;;;;;;;9.88;7.28;;;;;;;-146.58;100.00;69501.63;5011634;28;20037;-64
2023/06/16 02:28:06;;;;;;;8.43;7.63;;;;;;;-146.58;100.00;69501.63;5010314;28;20030;-66
2023/06/16 02:30:31;;;;;;;9.40;8.10;;;;;;;-146.58;100.00;69501.63;5011503;28;20021;-66
2023/06/16 02:32:58;;;;;;;14.23;7.72;;;;;;;-146.58;100.00;69501.63;5011445;28;20026;-66
2023/06/16 02:35:24;;;;;;;10.60;8.55;;;;;;;-146.58;100.00;69501.63;5010233;28;20076;-66
2023/06/16 02:37:52;;;;;;;12.88;8.10;;;;;;;-146.58;100.00;69501.63;5010921;28;20057;-66
2023/06/16 02:40:18;;;;;;;;;;;;;;;-146.58;100.00;69501.63;5010691;28;20037;-66
2023/06/16 02:42:43;;;;;;;9.27;8.38;;;;;;;-146.58;100.00;69501.63;5011601;28;19913;-66
2023/06/16 02:45:09;;;;;;;14.60;7.85;;;;;;;-146.58;100.00;69501.63;5009557;28;20063;-66
2023/06/16 02:47:35;;;;;;;9.20;8.32;;;;;;;-146.58;100.00;69501.63;5011772;28;20026;-66
2023/06/16 02:50:01;;;;;;;9.52;8.63;;;;;;;-146.58;100.00;69501.63;5009826;28;20444;-66
2023/06/16 02:52:26;;;;;;;12.25;7.45;;;;;;;-146.58;100.00;69501.63;5010649;28;20037;-66
2023/06/16 02:54:51;;;;;;;11.70;7.80;;;;;;;-146.58;100.00;69501.63;5009581;28;20408;-66
2023/06/16 02:57:17;;;;;;;29.58;9.60;;;;;;;-146.58;100.00;69501.63;5010982;28;20473;-66
2023/06/16 02:59:42;;;;;;;16.80;10.30;;;;;;;-146.58;100.00;69501.63;5009224;28;20409;-66
2023/06/16 03:02:07;;;;;;;9.73;8.52;;;;;;;-146.58;100.00;69501.63;5010834;28;20094;-65
2023/06/16 03:04:34;;;;;;;11.82;6.90;;;;;;;-146.58;100.00;69501.63;5009859;28;20042;-66
2023/06/16 03:07:02;;;;;;;9.95;8.43;;;;;;;-146.58;100.00;69501.63;5010480;28;20013;-66
2023/06/16 03:09:28;;;;;;;12.93;8.38;;;;;;;-146.58;100.00;69501.63;5009654;28;20436;-66
2023/06/16 03:11:54;;;;;;;8.95;8.15;;;;;;;-146.58;100.00;69501.63;5011128;28;20076;-65
2023/06/16 03:14:20;;;;;;;9.13;8.07;;;;;;;-146.58;100.00;69501.63;5009436;28;20520;-66
2023/06/16 03:16:48;;;;;;;12.50;7.80;;;;;;;-146.58;100.00;69501.63;5010817;28;20124;-66
2023/06/16 03:19:17;;;;;;;8.85;7.95;;;;;;;-146.58;100.00;69501.63;5009829;28;20065;-66
2023/06/16 03:21:44;;;;;;;13.48;7.88;;;;;;;-146.58;100.00;69501.63;5010478;28;20058;-66
2023/06/16 03:24:11;;;;;;;17.17;10.02;;;;;;;-146.58;100.00;69501.63;5009674;28;20394;-65
2023/06/16 03:26:37;;;;;;;14.15;8.35;;;;;;;-146.58;100.00;69501.63;5010616;28;20033;-65
2023/06/16 03:29:02;;;;;;;19.95;10.35;;;;;;;-146.58;100.00;69501.63;5009206;28;20046;-66
2023/06/16 03:31:27;;;;;;;15.77;9.90;;;;;;;-146.58;100.00;69501.63;5011010;28;20492;-66
2023/06/16 03:33:53;;;;;;;20.80;10.20;;;;;;;-146.58;100.00;69501.63;5009344;28;20053;-66
2023/06/16 03:36:18;;;;;;;13.10;8.23;;;;;;;-146.58;100.00;69501.63;5010484;28;20037;-66
2023/06/16 03:38:44;;;;;;;10.70;8.63;;;;;;;-146.58;100.00;69501.63;5009193;28;20046;-66
2023/06/16 03:41:10;;;;;;;12.50;9.50;;;;;;;-146.58;100.00;69501.63;5010731;28;20021;-66
2023/06/16 03:43:35;;;;;;;16.90;13.18;;;;;;;-146.58;100.00;69501.63;5009125;28;20038;-66
2023/06/16 03:46:00;;;;;;;14.35;10.30;;;;;;;-146.58;100.00;69501.63;5010564;28;20500;-66
2023/06/16 03:48:26;;;;;;;10.27;9.07;;;;;;;-146.58;100.00;69501.63;5009484;28;20038;-66
2023/06/16 03:50:52;;;;;;;19.40;10.75;;;;;;;-146.58;100.00;69501.63;5009877;28;20025;-66
2023/06/16 03:53:18;;;;;;;22.83;10.98;;;;;;;-146.58;100.00;69501.63;5009475;28;20074;-66
2023/06/16 03:55:43;;;;;;;11.80;10.10;;;;;;;-146.58;100.00;69501.63;5010639;28;20041;-65
2023/06/16 03:58:10;;;;;;;11.55;9.35;;;;;;;-146.58;100.00;69501.63;5009231;28;20026;-65
2023/06/16 04:00:35;;;;;;;12.90;10.43;;;;;;;-146.58;100.00;69501.63;5010213;28;20492;-65
2023/06/16 04:03:01;;;;;;;12.68;10.45;;;;;;;-146.58;100.00;69501.63;5008670;28;20108;-62
2023/06/16 04:05:26;;;;;;;15.63;9.85;;;;;;;-146.58;100.00;69501.63;5011978;28;20465;-62
2023/06/16 04:07:54;;;;;;;12.98;9.57;;;;;;;-146.58;100.00;69501.63;5013910;28;20271;-62
2023/06/16 04:10:19;;;;;;;12.30;9.63;;;;;;;-146.58;100.00;69501.63;5012649;28;20037;-62
2023/06/16 04:12:45;;;;;;;15.50;10.90;;;;;;;-146.58;100.00;69501.63;5013191;28;20072;-63
2023/06/16 04:15:10;;;;;;;13.40;10.27;;;;;;;-146.58;100.00;69501.63;5012240;28;20030;-62
2023/06/16 04:17:36;;;;;;;15.88;10.98;;;;;;;-146.58;100.00;69501.63;5013416;28;20038;-63
2023/06/16 04:20:04;;;;;;;15.48;9.95;;;;;;;-146.58;100.00;69501.63;5012438;28;20048;-62
2023/06/16 04:22:30;;;;;;;16.42;11.00;;;;;;;-146.58;100.00;69501.63;5014090;28;20032;-63
2023/06/16 04:24:55;;;;;;;16.98;9.95;;;;;;;-146.58;100.00;69501.63;5012053;28;20045;-63
2023/06/16 04:27:22;;;;;;;14.50;10.10;;;;;;;-146.58;100.00;69501.63;5013743;28;20026;-62
2023/06/16 04:29:49;;;;;;;12.10;10.90;;;;;;;-146.58;100.00;69501.63;5012018;28;20034;-62
2023/06/16 04:32:15;;;;;;;13.10;8.68;;;;;;;-146.58;100.00;69501.63;5013986;28;20022;-62
2023/06/16 04:34:40;;;;;;;13.93;10.45;;;;;;;-146.58;100.00;69501.63;5011946;28;20161;-65
2023/06/16 04:37:06;;;;;;;20.30;12.07;;;;;;;-146.58;100.00;69501.63;5012904;28;20039;-65
2023/06/16 04:39:31;;;;;;;13.50;9.80;;;;;;;-146.58;100.00;69501.63;5024847;28;20041;-65
2023/06/16 04:41:57;;;;;;;10.50;9.55;;;;;;;-146.58;100.00;69501.63;5033565;28;20034;-66
2023/06/16 04:44:23;;;;;;;16.17;11.63;;;;;;;-146.58;100.00;69501.63;5031499;28;20501;-67
2023/06/16 04:46:48;;;;;;;12.57;9.40;;;;;;;-146.58;100.00;69501.63;5033451;28;20079;-67
2023/06/16 04:49:14;;;;;;;13.02;10.98;;;;;;;-146.58;100.00;69501.63;5031846;28;20037;-67
2023/06/16 04:51:39;;;;;;;12.98;10.77;;;;;;;-146.58;100.00;69501.63;5033019;28;20025;-66
2023/06/16 04:54:04;;;;;;;19.20;10.48;;;;;;;-146.58;100.00;69501.63;5031749;28;20471;-67
2023/06/16 04:56:30;;;;;;;11.75;9.52;;;;;;;-146.58;100.00;69501.63;5032924;28;20037;-67
2023/06/16 04:58:55;;;;;;;22.48;10.68;;;;;;;-146.58;100.00;69501.63;5031254;28;20053;-67
2023/06/16 05:01:20;;;;;;;15.82;8.00;;;;;;;-146.58;100.00;69501.63;5033288;28;20021;-67
2023/06/16 05:03:46;;;;;;;14.07;10.73;;;;;;;-146.58;100.00;69501.63;5031233;28;20511;-67
2023/06/16 05:06:11;;;;;;;13.85;10.57;;;;;;;-146.58;100.00;69501.63;5032690;28;20032;-67
2023/06/16 05:08:38;;;;;;;13.07;8.63;;;;;;;-146.58;100.00;69501.63;5031687;28;20412;-67
2023/06/16 05:11:03;;;;;;;17.67;8.98;;;;;;;-146.58;100.00;69501.63;5032626;28;20022;-67
2023/06/16 05:13:30;;;;;;;14.60;7.47;;;;;;;-146.58;100.00;69501.63;5031211;28;20518;-67
2023/06/16 05:15:55;;;;;;;9.07;8.27;;;;;;;-146.58;100.00;69501.63;5032327;28;20030;-67
2023/06/16 05:18:20;;;;;;;11.98;9.27;;;;;;;-146.58;100.00;69501.63;5031269;28;20060;-66
2023/06/16 05:20:46;;;;;;;14.07;7.25;;;;;;;-146.58;100.00;69501.63;5032192;28;20079;-67
2023/06/16 05:23:11;;;;;;;22.95;9.40;;;;;;;-146.58;100.00;69501.63;5031429;28;20025;-66
2023/06/16 05:25:36;;;;;;;23.88;8.27;;;;;;;-146.58;100.00;69501.63;5032680;28;20022;-66
2023/06/16 05:28:02;;;;;;;8.95;7.05;;;;;;;-146.58;100.00;69501.63;5030693;28;20357;-65
2023/06/16 05:30:27;;;;;;;10.32;7.35;;;;;;;-146.58;100.00;69501.63;5028477;28;20072;-66
2023/06/16 05:32:52;;;;;;;10.70;8.40;;;;;;;-146.58;100.00;69501.63;5011636;28;20025;-65
2023/06/16 05:35:18;;;;;;;11.13;7.28;;;;;;;-146.58;100.00;69501.63;5027966;28;20046;-65
2023/06/16 05:37:43;;;;;;;12.15;8.73;;;;;;;-146.58;100.00;69501.63;5030978;28;20061;-63
2023/06/16 05:40:09;;;;;;;13.25;7.68;;;;;;;-146.58;100.00;69501.63;5030843;28;20041;-62
2023/06/16 05:42:35;;;;;;;18.67;7.82;;;;;;;-146.58;100.00;69501.63;5032253;28;20037;-62
2023/06/16 05:45:00;;;;;;;15.25;8.02;;;;;;;-146.58;100.00;69501.63;5030378;28;20515;-62
2023/06/16 05:47:25;;;;;;;10.57;7.30;;;;;;;-146.58;100.00;69501.63;5032557;28;20489;-62
2023/06/16 05:49:51;;;;;;;13.50;6.82;;;;;;;-146.58;100.00;69501.63;5030230;28;20048;-62
2023/06/16 05:52:16;;;;;;;44.80;9.88;;;;;;;-146.58;100.00;69501.63;5032269;28;20393;-62
2023/06/16 05:54:41;;;;;;;28.48;9.68;;;;;;;-146.58;100.00;69501.63;5030487;28;20103;-62
2023/06/16 05:57:07;;;;;;;10.90;7.63;;;;;;;-146.58;100.00;69501.63;5031555;28;20031;-62
2023/06/16 05:59:34;;;;;;;10.63;7.47;;;;;;;-146.58;100.00;69501.63;5030555;28;20516;-62
2023/06/16 06:02:00;;;;;;;12.27;7.67;;;;;;;-146.58;100.00;69501.63;5031673;28;20840;-62
2023/06/16 06:04:32;;;;;;;10.48;8.38;;;;;;;-146.58;100.00;69501.63;5030050;28;20073;-62
2023/06/16 06:06:59;;;;;;;8.88;6.07;;;;;;;-146.58;100.00;69501.63;5031886;28;20029;-62
2023/06/16 06:09:24;;;;;;;11.55;7.75;;;;;;;-146.58;100.00;69501.63;5030551;28;20045;-62
2023/06/16 06:11:50;;;;;;;7.28;5.68;;;;;;;-146.58;100.00;69501.63;5031267;28;20048;-62
2023/06/16 06:14:16;;;;;;;13.50;5.95;;;;;;;-146.58;100.00;69501.63;5030297;28;20125;-62
2023/06/16 06:16:41;;;;;;;8.20;5.85;;;;;;;-146.58;100.00;69501.63;5031239;28;20112;-62
2023/06/16 06:19:07;;;;;;;22.27;8.00;;;;;;;-146.58;100.00;69501.63;5030052;28;20053;-62
2023/06/16 06:21:33;;;;;;;7.28;5.47;;;;;;;-146.58;100.00;69501.63;5031584;28;20080;-63
2023/06/16 06:23:59;;;;;;;7.68;4.90;;;;;;;-146.58;100.00;69501.63;5030103;28;20033;-64
2023/06/16 06:26:25;;;;;;;9.75;5.85;;;;;;;-146.58;100.00;69501.63;5030942;28;20091;-64
2023/06/16 06:28:50;;;;;;;6.13;4.43;;;;;;;-146.58;100.00;69501.63;5028714;28;20044;-64
2023/06/16 06:31:15;;;;;;;9.25;5.93;;;;;;;-146.58;100.00;69501.63;5031423;28;20037;-64
2023/06/16 06:33:41;;;;;;;6.35;5.68;;;;;;;-146.58;100.00;69501.63;5029283;28;20037;-64
2023/06/16 06:36:06;;;;;;;11.60;5.95;;;;;;;19.37;100.00;165635.03;5031277;28;20030;-64
2023/06/16 06:38:31;;;;;;;9.38;4.82;;;;;;;-146.58;100.00;69501.63;5030203;28;20148;-64
2023/06/16 06:40:57;;;;;;;10.60;6.35;;;;;;;-146.58;100.00;69501.63;5026558;28;20032;-64
2023/06/16 06:43:22;;;;;;;9.88;5.10;;;;;;;-146.58;100.00;69501.63;5029341;28;20100;-64
2023/06/16 06:45:49;;;;;;;10.73;5.78;;;;;;;-146.58;100.00;69501.63;5030106;28;20033;-64
2023/06/16 06:48:16;;;;;;;11.93;6.03;;;;;;;-146.58;100.00;69501.63;5029790;28;20079;-64
2023/06/16 06:50:42;;;;;;;11.75;6.13;;;;;;;-146.58;100.00;69501.63;5030570;28;20060;-64
2023/06/16 06:53:07;;;;;;;7.57;5.35;;;;;;;-146.58;100.00;69501.63;5029619;28;20373;-64
2023/06/16 06:55:32;;;;;;;8.70;6.00;;;;;;;-146.58;100.00;69501.63;5031248;28;20021;-64
2023/06/16 06:57:58;;;;;;;5.93;5.20;;;;;;;19.37;100.00;165635.03;5030326;28;20033;-64
2023/06/16 07:00:23;;;;;;;10.23;6.50;;;;;;;19.97;100.00;165793.88;5029221;28;20496;-64
2023/06/16 07:02:48;;;;;;;10.88;5.55;;;;;;;20.07;100.00;165818.28;5030544;28;20041;-64
2023/06/16 07:05:14;;;;;;;13.23;6.22;;;;;;;20.18;100.00;165848.16;5029022;28;20038;-64
2023/06/16 07:07:39;;;;;;;9.88;5.47;;;;;;;20.33;100.00;165886.16;5030780;28;20017;-64
2023/06/16 07:10:05;;;;;;;6.60;5.07;;;;;;;20.54;100.00;165943.19;5029258;28;20045;-64
2023/06/16 07:12:31;;;;;;;8.68;5.18;;;;;;;20.59;100.00;165956.72;5030694;28;20033;-64
2023/06/16 07:14:57;;;;;;;8.82;4.55;;;;;;;-146.58;100.00;69501.63;5029104;28;20063;-64
2023/06/16 07:17:22;;;;;;;4.47;3.90;;;;;;;-146.58;100.00;69501.63;5030764;28;20477;-64
2023/06/16 07:19:47;;;;;;;3.55;3.17;;;;;;;-146.58;100.00;69501.63;5028563;28;20046;-64
2023/06/16 07:22:13;;;;;;;16.65;5.55;;;;;;;-146.58;100.00;69501.63;5030819;28;20026;-64
2023/06/16 07:24:38;;;;;;;11.70;4.65;;;;;;;-146.58;100.00;69501.63;5029252;28;20042;-65
2023/06/16 07:27:04;;;;;;;8.93;4.95;;;;;;;-146.58;100.00;69501.63;5030152;28;20034;-64
2023/06/16 07:29:30;;;;;;;9.38;5.47;;;;;;;21.18;100.00;166111.63;5029404;28;20048;-64
2023/06/16 07:31:55;;;;;;;10.07;5.13;;;;;;;-146.58;100.00;69501.63;5030310;28;20033;-64
2023/06/16 07:34:21;;;;;;;8.68;4.57;;;;;;;-146.58;100.00;69501.63;5029011;28;20048;-64
2023/06/16 07:36:46;;;;;;;8.93;5.60;;;;;;;-146.58;100.00;69501.63;5030449;28;20637;-65
2023/06/16 07:39:12;;;;;;;4.15;3.33;;;;;;;-146.58;100.00;69501.63;5030518;28;20054;-64
2023/06/16 07:41:37;;;;;;;14.75;5.97;;;;;;;-146.58;100.00;69501.63;5034044;28;20026;-64
2023/06/16 07:44:04;;;;;;;5.53;3.92;;;;;;;-146.58;100.00;69501.63;5033084;28;20065;-64
2023/06/16 07:46:30;;;;;;;14.40;4.38;;;;;;;-146.58;100.00;69501.63;5034407;28;20032;-64
2023/06/16 07:48:55;;;;;;;7.57;4.40;;;;;;;-146.58;100.00;69501.63;5032574;28;20583;-64
2023/06/16 07:51:21;;;;;;;5.18;3.95;;;;;;;-146.58;100.00;69501.63;5034586;28;20029;-64
2023/06/16 07:53:48;;;;;;;5.00;3.20;;;;;;;-146.58;100.00;69501.63;5032853;28;20404;-64
2023/06/16 07:56:13;;;;;;;4.43;2.78;;;;;;;-146.58;100.00;69501.63;5034336;28;20028;-64
2023/06/16 07:58:39;;;;;;;8.27;4.35;;;;;;;-146.58;100.00;69501.63;5032860;28;20041;-64
2023/06/16 08:01:04;;;;;;;4.60;3.83;;;;;;;-146.58;100.00;69501.63;5034003;28;20034;-64
2023/06/16 08:03:30;;;;;;;5.20;3.03;;;;;;;-146.58;100.00;69501.63;5032332;28;20056;-64
2023/06/16 08:05:57;;;;;;;7.95;3.55;;;;;;;-146.58;100.00;69501.63;5034246;28;20124;-64
2023/06/16 08:08:23;;;;;;;6.07;2.88;;;;;;;-146.58;100.00;69501.63;5032647;28;20522;-64
2023/06/16 08:10:49;;;;;;;6.45;2.90;;;;;;;-146.58;100.00;69501.63;5033549;28;20030;-64
2023/06/16 08:13:14;;;;;;;5.88;2.80;;;;;;;-146.58;100.00;69501.63;5032965;28;20068;-64
2023/06/16 08:15:39;;;;;;;4.05;2.58;;;;;;;-146.58;100.00;69501.63;5034417;28;20033;-64
2023/06/16 08:18:05;;;;;;;9.45;4.55;;;;;;;-146.58;100.00;69501.63;5032464;28;20021;-63
2023/06/16 08:20:32;;;;;;;7.53;3.42;;;;;;;-146.58;100.00;69501.63;5034218;28;20048;-64
2023/06/16 08:22:57;;;;;;;5.00;3.00;;;;;;;-146.58;100.00;69501.63;5033890;28;20034;-64
2023/06/16 08:25:23;;;;;;;10.93;2.97;;;;;;;-146.58;100.00;69501.63;5031800;28;20044;-64
2023/06/16 08:27:48;;;;;;;5.65;3.13;;;;;;;-146.58;100.00;69501.63;5033658;28;20025;-64
2023/06/16 08:30:17;;;;;;;17.30;3.15;;;;;;;-146.58;100.00;69501.63;5032293;28;20041;-64
2023/06/16 08:32:42;;;;;;;3.47;3.03;;;;;;;-146.58;100.00;69501.63;5033496;28;20447;-64
2023/06/16 08:35:08;;;;;;;3.53;2.92;;;;;;;-146.58;100.00;69501.63;5032305;28;20041;-64
2023/06/16 08:37:33;;;;;;;4.80;3.85;;;;;;;-146.58;100.00;69501.63;5033561;28;20021;-65
2023/06/16 08:39:59;;;;;;;8.25;3.58;;;;;;;-146.58;100.00;69501.63;5031577;28;20037;-64
2023/06/16 08:42:24;;;;;;;3.63;3.28;;;;;;;23.94;97.79;166837.44;5033333;28;20029;-64
2023/06/16 08:44:53;;;;;;;2.92;2.65;;;;;;;24.03;99.74;166861.91;5031826;28;20054;-64
2023/06/16 08:47:18;;;;;;;3.80;3.03;;;;;;;24.35;98.92;166944.91;5033277;28;20100;-65
2023/06/16 08:49:44;;;;;;;6.05;3.17;;;;;;;24.63;98.58;167019.69;5031600;28;20095;-64
2023/06/16 08:52:12;;;;;;;3.28;2.90;;;;;;;24.71;94.50;167041.50;5029060;28;20049;-64
2023/06/16 08:54:47;;;;;;;;;;;;;;;24.92;93.36;167095.91;5031779;28;20076;-64
2023/06/16 08:57:13;;;;;;;4.15;2.92;;;;;;;25.25;99.14;167183.03;5033090;28;19912;-64
2023/06/16 08:59:39;;;;;;;5.97;3.42;;;;;;;25.38;94.90;167215.66;5031667;28;20448;-64
2023/06/16 09:02:05;;;;;;;10.95;3.38;;;;;;;25.46;96.79;167237.50;5032315;28;20116;-64
2023/06/16 09:04:33;;;;;;;7.65;2.72;;;;;;;25.48;96.07;167244.28;5031521;28;20124;-64
2023/06/16 09:06:59;;;;;;;6.15;3.97;;;;;;;25.58;98.72;167270.13;5032631;28;20028;-64
2023/06/16 09:09:26;;;;;;;5.45;2.42;;;;;;;25.61;96.91;167278.31;5031035;28;20043;-65
2023/06/16 09:12:04;;;;;;;10.88;3.55;;;;;;;25.74;98.69;167310.97;5032921;28;20147;-65
2023/06/16 09:14:31;;;;;;;4.45;3.42;;;;;;;25.65;92.01;167289.19;5031493;28;20052;-64
2023/06/16 09:16:59;;;;;;;7.23;3.23;;;;;;;25.62;90.02;167281.03;5032483;28;20101;-65
2023/06/16 09:19:25;;;;;;;8.60;3.00;;;;;;;25.71;91.28;167304.16;5031343;28;20527;-65
2023/06/16 09:21:54;;;;;;;119.18;12.38;;;;;;;25.79;92.76;167324.59;5032832;28;20026;-65
2023/06/16 09:24:27;;;;;;;25.20;4.90;;;;;;;25.87;92.37;167346.41;5030716;28;20052;-66
2023/06/16 09:26:57;;;;;;;7.88;2.78;;;;;;;26.25;89.95;167447.13;5032195;28;20554;-65
2023/06/16 09:29:24;;;;;;;3.05;2.60;;;;;;;26.55;86.51;167526.09;5031380;28;20048;-65
2023/06/16 09:31:50;;;;;;;5.35;2.92;;;;;;;26.66;89.31;167553.34;5032071;28;20021;-65
2023/06/16 09:34:16;;;;;;;6.60;3.15;;;;;;;26.56;80.91;167528.81;5031222;28;20049;-65
2023/06/16 09:36:42;;;;;;;5.70;3.10;;;;;;;26.35;81.89;167471.66;5032433;28;20034;-65
2023/06/16 09:39:22;;;;;;;3.47;2.70;;;;;;;26.33;82.40;167466.19;5030569;28;20065;-64
2023/06/16 09:41:48;;;;;;;3.38;2.78;;;;;;;26.28;81.11;167455.31;5032327;28;20068;-66
2023/06/16 09:44:14;;;;;;;7.40;3.50;;;;;;;26.20;79.67;167432.19;5030926;28;20106;-66
2023/06/16 09:46:41;;;;;;;5.55;2.83;;;;;;;26.23;79.23;167440.34;5031983;28;20037;-66
2023/06/16 09:49:06;;;;;;;6.20;4.28;;;;;;;26.06;70.72;167395.38;5030753;28;20060;-63
2023/06/16 09:51:31;;;;;;;8.27;2.88;;;;;;;25.94;69.89;167364.06;5032155;28;20431;-64
2023/06/16 09:53:59;;;;;;;7.88;2.95;;;;;;;25.83;69.40;167335.47;5030195;28;20049;-65
2023/06/16 09:56:27;;;;;;;9.15;2.58;;;;;;;25.41;67.05;167225.22;5032042;28;20025;-65
2023/06/16 09:58:52;;;;;;;6.55;2.97;;;;;;;25.45;67.70;167236.16;5030429;28;20065;-65
2023/06/16 10:01:20;;;;;;;3.35;2.45;;;;;;;25.73;75.06;167308.25;5031740;28;20021;-64
2023/06/16 10:03:48;;;;;;;4.23;2.47;;;;;;;26.05;75.17;167392.63;5030029;28;20068;-64
2023/06/16 10:06:19;;;;;;;4.65;3.22;;;;;;;26.17;68.92;167425.41;5032267;28;20445;-65
2023/06/16 10:08:48;;;;;;;5.53;3.17;;;;;;;26.24;70.39;167444.44;5029608;28;20080;-69
2023/06/16 10:11:18;;;;;;;7.80;2.85;;;;;;;26.52;70.47;167516.56;5032159;28;20022;-66
2023/06/16 10:13:56;;;;;;;4.57;2.30;;;;;;;26.75;67.79;167577.88;5029720;28;20136;-64
2023/06/16 10:16:25;;;;;;;3.72;2.88;;;;;;;-146.58;100.00;69501.63;5030321;28;20064;-64
2023/06/16 10:18:53;;;;;;;3.25;2.63;;;;;;;-146.58;100.00;69501.63;5030024;28;20412;-64
2023/06/16 10:21:19;;;;;;;3.90;2.53;;;;;;;-146.58;100.00;69501.63;5031714;28;20098;-65
2023/06/16 10:23:44;;;;;;;4.10;3.17;;;;;;;-146.58;100.00;69501.63;5029636;28;20086;-64
2023/06/16 10:26:12;;;;;;;4.95;2.85;;;;;;;-146.58;100.00;69501.63;5029584;28;20025;-64
2023/06/16 10:28:38;;;;;;;3.47;2.80;;;;;;;-146.58;100.00;69501.63;5010320;28;20172;-64
2023/06/16 10:31:04;;;;;;;10.07;2.80;;;;;;;-146.58;100.00;69501.63;5030059;28;20025;-65
2023/06/16 10:33:51;;;;;;;3.65;2.90;;;;;;;-146.58;100.00;69501.63;5029996;28;20045;-68
2023/06/16 10:36:20;;;;;;;3.83;2.58;;;;;;;-146.58;100.00;69501.63;5031182;28;20036;-65
2023/06/16 10:38:58;;;;;;;4.85;2.50;;;;;;;-146.58;100.00;69501.63;5026593;28;20053;-64
2023/06/16 10:41:24;;;;;;;7.20;3.22;;;;;;;-146.58;100.00;69501.63;5027758;28;20029;-65
2023/06/16 10:43:49;;;;;;;3.97;2.97;;;;;;;-146.58;100.00;69501.63;5029682;28;20037;-64
2023/06/16 10:46:17;;;;;;;3.30;3.00;;;;;;;-146.58;100.00;69501.63;5030866;28;20032;-65
2023/06/16 10:48:56;;;;;;;5.03;3.15;;;;;;;-146.58;100.00;69501.63;5029726;28;20037;-64
2023/06/16 10:51:50;;;;;;;8.52;2.70;;;;;;;-146.58;100.00;69501.63;5031038;28;20428;-65
2023/06/16 10:54:37;;;;;;;3.25;2.95;;;;;;;-146.58;100.00;69501.63;5024610;28;20042;-65
2023/06/16 10:57:06;;;;;;;8.85;4.43;;;;;;;-146.58;100.00;69501.63;5030682;28;20068;-65
2023/06/16 10:59:57;;;;;;;4.90;2.90;;;;;;;-146.58;100.00;69501.63;5029764;28;20037;-64
2023/06/16 11:02:34;;;;;;;4.82;2.58;;;;;;;-146.58;100.00;69501.63;5031028;28;20017;-65
2023/06/16 11:05:22;;;;;;;8.07;3.53;;;;;;;-146.58;100.00;69501.63;5029651;28;20107;-64
2023/06/16 11:07:57;;;;;;;7.22;3.38;;;;;;;-146.58;100.00;69501.63;5030434;28;20071;-65